createdAt,value
2023-03-19T00:01:56.491Z,100831.97
2023-03-19T00:04:59.240Z,100836.44
2023-03-19T00:08:01.802Z,100843.16
2023-03-19T00:11:08.250Z,100840.63
2023-03-19T00:14:12.303Z,100843.72
2023-03-19T00:17:14.911Z,100842.97
2023-03-19T00:20:18.214Z,100844.44
2023-03-19T00:23:20.866Z,100855.91
2023-03-19T00:26:23.439Z,100847.28
2023-03-19T00:29:27.443Z,100855.31
2023-03-19T00:32:30.186Z,100856.19
2023-03-19T00:35:33.434Z,100858.06
2023-03-19T00:38:36.534Z,100847.63
2023-03-19T00:41:39.118Z,100854.63
2023-03-19T00:44:43.052Z,100850.59
2023-03-19T00:47:45.623Z,100852.94
2023-03-19T00:50:48.293Z,100848.75
2023-03-19T00:53:51.688Z,100852.31
2023-03-19T00:56:54.283Z,100855.59
2023-03-19T00:59:58.251Z,100857.63
2023-03-19T01:03:01.352Z,100858.72
2023-03-19T01:06:04.800Z,100851.03
2023-03-19T01:09:07.358Z,100867.41
2023-03-19T01:12:10.722Z,100866.53
2023-03-19T01:15:15.189Z,100868.03
2023-03-19T01:18:18.152Z,100865.38
2023-03-19T01:21:21.812Z,100865.03
2023-03-19T01:24:24.795Z,100856.94
2023-03-19T01:27:27.387Z,100845.13
2023-03-19T01:30:31.827Z,100854.66
2023-03-19T01:33:34.588Z,100849.41
2023-03-19T01:36:37.171Z,100845.56
2023-03-19T01:39:39.753Z,100849.50
2023-03-19T01:42:58.008Z,100860.31
2023-03-19T01:46:07.275Z,100850.16
2023-03-19T01:49:12.600Z,100844.44
2023-03-19T01:52:16.703Z,100848.91
2023-03-19T01:55:20.002Z,100850.75
2023-03-19T01:58:25.573Z,100847.09
2023-03-19T02:01:34.644Z,100846.69
2023-03-19T02:04:39.922Z,100842.56
2023-03-19T02:07:45.984Z,100845.03
2023-03-19T02:10:48.926Z,100841.44
2023-03-19T02:13:51.860Z,100839.53
2023-03-19T02:16:56.302Z,100845.56
2023-03-19T02:20:05.515Z,100846.50
2023-03-19T02:23:14.916Z,100841.97
2023-03-19T02:26:20.769Z,100850.59
2023-03-19T02:29:23.338Z,100850.88
2023-03-19T02:32:27.004Z,100857.91
2023-03-19T02:35:34.432Z,100854.06
2023-03-19T02:38:39.123Z,100844.44
2023-03-19T02:41:43.972Z,100849.75
2023-03-19T02:44:47.668Z,100852.31
2023-03-19T02:47:50.565Z,100846.75
2023-03-19T02:50:53.217Z,100849.03
2023-03-19T02:53:55.796Z,100848.75
2023-03-19T02:56:59.743Z,100845.94
2023-03-19T03:00:02.364Z,100843.72
2023-03-19T03:03:07.565Z,100845.16
2023-03-19T03:06:10.152Z,100853.81
2023-03-19T03:09:14.187Z,100851.47
2023-03-19T03:12:18.189Z,100861.09
2023-03-19T03:15:21.545Z,100854.19
2023-03-19T03:18:24.157Z,100855.91
2023-03-19T03:21:27.035Z,100854.84
2023-03-19T03:24:29.801Z,100851.63
2023-03-19T03:27:33.797Z,100860.16
2023-03-19T03:30:36.776Z,100861.09
2023-03-19T03:33:39.359Z,100864.13
2023-03-19T03:36:42.103Z,100860.91
2023-03-19T03:39:44.719Z,100866.22
2023-03-19T03:42:48.724Z,100865.94
2023-03-19T03:45:51.380Z,100863.63
2023-03-19T03:48:53.969Z,100859.47
2023-03-19T03:51:57.235Z,100858.59
2023-03-19T03:54:59.854Z,100864.16
2023-03-19T03:58:03.796Z,100856.88
2023-03-19T04:01:07.089Z,100857.41
2023-03-19T04:04:09.880Z,100856.50
2023-03-19T04:07:13.006Z,100852.81
2023-03-19T04:10:15.938Z,100846.38
2023-03-19T04:13:20.293Z,100849.41
2023-03-19T04:16:23.136Z,100857.78
2023-03-19T04:19:25.937Z,100850.75
2023-03-19T04:22:28.790Z,100854.44
2023-03-19T04:25:31.587Z,100863.47
2023-03-19T04:28:36.264Z,100866.34
2023-03-19T04:31:39.174Z,100860.53
2023-03-19T04:34:41.895Z,100860.78
2023-03-19T04:37:48.407Z,100864.72
2023-03-19T04:40:51.828Z,100866.59
2023-03-19T04:43:55.760Z,100863.81
2023-03-19T04:46:58.540Z,100864.72
2023-03-19T04:50:01.136Z,100861.97
2023-03-19T04:53:03.926Z,100865.34
2023-03-19T04:56:07.933Z,100864.63
2023-03-19T04:59:11.890Z,100872.75
2023-03-19T05:02:14.489Z,100871.56
2023-03-19T05:05:17.130Z,100866.47
2023-03-19T05:08:19.709Z,100865.91
2023-03-19T05:11:22.308Z,100868.91
2023-03-19T05:14:26.350Z,100866.41
2023-03-19T05:17:28.947Z,100875.84
2023-03-19T05:20:31.769Z,100872.25
2023-03-19T05:23:34.504Z,100881.66
2023-03-19T05:26:37.517Z,100876.63
2023-03-19T05:29:42.436Z,100873.75
2023-03-19T05:32:46.616Z,100879.06
2023-03-19T05:35:49.477Z,100863.81
2023-03-19T05:38:52.090Z,100873.00
2023-03-19T05:41:54.691Z,100873.25
2023-03-19T05:44:58.918Z,100874.84
2023-03-19T05:48:01.635Z,100874.16
2023-03-19T05:51:04.710Z,100885.72
2023-03-19T05:54:07.801Z,100878.75
2023-03-19T05:57:10.609Z,100876.97
2023-03-19T06:00:15.997Z,100877.81
2023-03-19T06:03:18.781Z,100880.16
2023-03-19T06:06:21.379Z,100880.16
2023-03-19T06:09:23.968Z,100881.88
2023-03-19T06:12:26.992Z,100884.78
2023-03-19T06:15:31.428Z,100878.84
2023-03-19T06:18:34.254Z,100889.66
2023-03-19T06:21:36.909Z,100880.47
2023-03-19T06:24:39.497Z,100883.56
2023-03-19T06:27:42.075Z,100879.38
2023-03-19T06:30:46.047Z,100880.63
2023-03-19T06:33:49.076Z,100889.00
2023-03-19T06:36:53.672Z,100892.25
2023-03-19T06:39:56.260Z,100883.56
2023-03-19T06:42:58.829Z,100879.16
2023-03-19T06:46:02.780Z,100899.56
2023-03-19T06:49:05.500Z,100902.44
2023-03-19T06:52:08.442Z,100904.81
2023-03-19T06:55:12.529Z,100910.00
2023-03-19T06:58:15.123Z,100916.31
2023-03-19T07:01:19.173Z,100919.28
2023-03-19T07:04:21.899Z,100919.53
2023-03-19T07:07:24.570Z,100920.63
2023-03-19T07:10:27.191Z,100924.44
2023-03-19T07:13:29.761Z,100935.72
2023-03-19T07:16:33.953Z,100930.63
2023-03-19T07:19:36.576Z,100929.19
2023-03-19T07:22:39.195Z,100933.28
2023-03-19T07:25:42.242Z,100933.94
2023-03-19T07:28:44.873Z,100939.91
2023-03-19T07:31:48.853Z,100938.09
2023-03-19T07:34:51.554Z,100936.00
2023-03-19T07:37:54.145Z,100937.88
2023-03-19T07:41:02.497Z,100936.16
2023-03-19T07:44:06.262Z,100934.22
2023-03-19T07:47:22.433Z,100934.47
2023-03-19T07:50:28.935Z,100940.91
2023-03-19T07:53:31.529Z,100939.97
2023-03-19T07:56:34.192Z,100948.75
2023-03-19T07:59:36.763Z,100946.69
2023-03-19T08:02:42.598Z,100947.78
2023-03-19T08:05:45.216Z,100943.22
2023-03-19T08:08:47.789Z,100952.19
2023-03-19T08:11:50.459Z,100961.28
2023-03-19T08:14:53.095Z,100947.81
2023-03-19T08:18:00.363Z,100950.59
2023-03-19T08:21:03.084Z,100951.34
2023-03-19T08:24:06.018Z,100953.22
2023-03-19T08:27:08.784Z,100951.81
2023-03-19T08:30:13.358Z,100956.13
2023-03-19T08:33:17.711Z,100954.38
2023-03-19T08:36:20.288Z,100945.97
2023-03-19T08:39:22.850Z,100952.81
2023-03-19T08:42:25.793Z,100953.16
2023-03-19T08:45:28.397Z,100957.22
2023-03-19T08:48:32.570Z,100963.88
2023-03-19T08:51:35.285Z,100967.72
2023-03-19T08:54:38.034Z,100968.59
2023-03-19T08:57:40.832Z,100971.56
2023-03-19T09:00:43.405Z,100972.38
2023-03-19T09:03:47.405Z,100974.09
2023-03-19T09:06:51.544Z,100976.47
2023-03-19T09:09:54.164Z,100968.59
2023-03-19T09:12:56.765Z,100976.09
2023-03-19T09:15:59.395Z,100973.09
2023-03-19T09:19:03.399Z,100978.50
2023-03-19T09:22:06.066Z,100983.69
2023-03-19T09:25:09.572Z,100985.69
2023-03-19T09:28:12.362Z,100978.84
2023-03-19T09:31:15.222Z,100982.38
2023-03-19T09:34:19.184Z,100983.47
2023-03-19T09:37:21.764Z,100987.38
2023-03-19T09:40:28.771Z,100993.69
2023-03-19T09:43:49.743Z,100982.31
2023-03-19T09:46:58.520Z,100983.66
2023-03-19T09:50:06.853Z,100992.28
2023-03-19T09:53:19.029Z,100990.47
2023-03-19T09:56:21.754Z,100995.88
2023-03-19T09:59:26.243Z,100991.38
2023-03-19T10:02:43.632Z,100996.09
2023-03-19T10:05:55.299Z,100987.06
2023-03-19T10:09:13.317Z,100987.28
2023-03-19T10:12:27.614Z,100994.78
2023-03-19T10:15:32.099Z,100988.63
2023-03-19T10:18:39.324Z,100992.34
2023-03-19T10:21:46.948Z,100994.19
2023-03-19T10:24:51.462Z,100996.00
2023-03-19T10:28:00.277Z,100989.94
2023-03-19T10:31:14.673Z,100994.16
2023-03-19T10:34:31.139Z,100989.16
2023-03-19T10:37:36.613Z,100985.47
2023-03-19T10:40:49.800Z,100994.16
2023-03-19T10:43:55.571Z,100989.22
2023-03-19T10:47:11.758Z,100981.38
2023-03-19T10:50:17.393Z,100979.38
2023-03-19T10:53:31.824Z,100988.94
2023-03-19T10:56:35.980Z,100988.69
2023-03-19T10:59:39.250Z,100985.28
2023-03-19T11:02:49.530Z,100993.00
2023-03-19T11:06:05.487Z,100987.19
2023-03-19T11:09:20.448Z,100977.66
2023-03-19T11:12:27.203Z,100979.13
2023-03-19T11:15:36.053Z,100977.53
2023-03-19T11:18:40.422Z,100978.63
2023-03-19T11:21:43.078Z,100979.84
2023-03-19T11:24:54.253Z,100987.25
2023-03-19T11:28:02.000Z,100983.25
2023-03-19T11:31:13.255Z,100987.69
2023-03-19T11:34:30.437Z,100978.41
2023-03-19T11:37:50.201Z,100981.34
2023-03-19T11:41:03.322Z,100978.81
2023-03-19T11:44:08.155Z,100971.00
2023-03-19T11:47:26.719Z,100970.56
2023-03-19T11:50:36.923Z,100965.13
2023-03-19T11:53:51.554Z,100960.53
2023-03-19T11:57:00.978Z,100958.50
2023-03-19T12:00:23.751Z,100967.28
2023-03-19T12:03:57.187Z,100965.50
2023-03-19T12:07:08.496Z,100958.63
2023-03-19T12:10:28.685Z,100960.09
2023-03-19T12:13:43.440Z,100964.72
2023-03-19T12:16:56.950Z,100969.00
2023-03-19T12:20:28.079Z,100967.31
2023-03-19T12:23:47.572Z,100965.31
2023-03-19T12:26:59.079Z,100961.78
2023-03-19T12:30:10.234Z,100970.41
2023-03-19T12:33:24.437Z,100984.34
2023-03-19T12:36:33.267Z,101006.59
2023-03-19T12:39:39.827Z,100987.47
2023-03-19T12:42:43.533Z,100985.59
2023-03-19T12:45:51.776Z,100987.75
2023-03-19T12:48:59.833Z,100983.38
2023-03-19T12:52:09.494Z,100984.97
2023-03-19T12:55:19.538Z,100974.56
2023-03-19T12:58:31.257Z,100975.03
2023-03-19T13:01:40.315Z,100976.41
2023-03-19T13:04:50.616Z,100977.56
2023-03-19T13:07:59.065Z,100980.22
2023-03-19T13:11:04.876Z,100968.75
2023-03-19T13:14:14.155Z,100968.19
2023-03-19T13:17:27.227Z,100968.00
2023-03-19T13:20:41.414Z,100965.09
2023-03-19T13:23:45.597Z,100967.00
2023-03-19T13:26:49.519Z,100962.66
2023-03-19T13:30:01.992Z,100968.09
2023-03-19T13:33:07.218Z,100966.44
2023-03-19T13:36:15.506Z,100961.47
2023-03-19T13:39:21.397Z,100960.53
2023-03-19T13:42:38.279Z,100953.16
2023-03-19T13:45:41.128Z,100954.13
2023-03-19T13:48:52.764Z,100956.59
2023-03-19T13:51:59.646Z,100953.44
2023-03-19T13:55:32.839Z,100948.94
2023-03-19T13:58:51.957Z,100967.56
2023-03-19T14:01:55.234Z,100962.03
2023-03-19T14:05:02.925Z,100958.72
2023-03-19T14:08:18.354Z,100957.88
2023-03-19T14:11:25.545Z,100957.09
2023-03-19T14:14:28.195Z,100961.88
2023-03-19T14:17:34.362Z,100959.00
2023-03-19T14:20:48.367Z,100975.25
2023-03-19T14:23:57.594Z,100981.72
2023-03-19T14:27:03.672Z,100979.34
2023-03-19T14:30:15.643Z,100990.41
2023-03-19T14:33:21.085Z,100988.31
2023-03-19T14:36:25.909Z,100995.03
2023-03-19T14:39:31.280Z,100997.09
2023-03-19T14:42:40.993Z,100996.56
2023-03-19T14:45:50.404Z,100989.84
2023-03-19T14:49:18.828Z,101001.06
2023-03-19T14:52:24.344Z,100990.88
2023-03-19T14:55:35.133Z,100987.13
2023-03-19T14:58:37.881Z,100993.25
2023-03-19T15:01:42.279Z,100996.69
2023-03-19T15:04:46.377Z,101000.88
2023-03-19T15:07:54.221Z,101003.31
2023-03-19T15:11:08.691Z,101001.19
2023-03-19T15:14:26.228Z,100995.72
2023-03-19T15:17:30.790Z,101000.53
2023-03-19T15:20:38.633Z,100996.75
2023-03-19T15:23:46.199Z,101000.38
2023-03-19T15:26:48.970Z,100995.66
2023-03-19T15:29:52.271Z,101002.84
2023-03-19T15:33:10.492Z,100997.38
2023-03-19T15:36:20.488Z,100998.84
2023-03-19T15:39:27.633Z,100998.50
2023-03-19T15:42:31.188Z,101000.66
2023-03-19T15:45:35.531Z,100994.03
2023-03-19T15:48:44.875Z,100994.72
2023-03-19T15:51:51.556Z,100999.91
2023-03-19T15:54:56.502Z,100997.66
2023-03-19T15:58:06.380Z,100992.13
2023-03-19T16:01:11.137Z,101009.72
2023-03-19T16:04:20.762Z,101009.28
2023-03-19T16:07:34.064Z,101011.97
2023-03-19T16:10:42.881Z,101009.34
2023-03-19T16:13:56.924Z,101024.38
2023-03-19T16:17:04.897Z,101026.94
2023-03-19T16:20:14.743Z,101033.69
2023-03-19T16:23:19.392Z,101026.78
2023-03-19T16:26:26.105Z,101036.97
2023-03-19T16:29:30.709Z,101038.66
2023-03-19T16:32:33.643Z,101039.03
2023-03-19T16:35:37.826Z,101043.19
2023-03-19T16:38:45.405Z,101045.31
2023-03-19T16:42:23.631Z,101041.97
2023-03-19T16:45:28.046Z,101039.03
2023-03-19T16:48:30.617Z,101046.09
2023-03-19T16:51:33.871Z,101048.84
2023-03-19T16:54:36.667Z,101050.56
2023-03-19T16:57:40.619Z,101051.28
2023-03-19T17:00:44.378Z,101047.34
2023-03-19T17:03:48.117Z,101054.06
2023-03-19T17:06:51.070Z,101063.47
2023-03-19T17:09:53.700Z,101062.31
2023-03-19T17:12:58.219Z,101057.59
2023-03-19T17:16:02.741Z,101064.34
2023-03-19T17:19:11.080Z,101074.03
2023-03-19T17:22:14.504Z,101074.59
2023-03-19T17:25:19.139Z,101079.69
2023-03-19T17:28:23.224Z,101075.66
2023-03-19T17:31:27.956Z,101088.38
2023-03-19T17:34:31.859Z,101084.63
2023-03-19T17:37:35.801Z,101084.16
2023-03-19T17:40:38.523Z,101093.38
2023-03-19T17:43:42.640Z,101099.19
2023-03-19T17:46:48.436Z,101095.91
2023-03-19T17:49:51.078Z,101093.91
2023-03-19T17:52:53.716Z,101092.72
2023-03-19T17:55:56.344Z,101096.88
2023-03-19T17:59:00.288Z,101102.38
2023-03-19T18:02:02.889Z,101107.34
2023-03-19T18:05:07.328Z,101105.88
2023-03-19T18:08:15.648Z,101109.41
2023-03-19T18:11:18.736Z,101119.69
2023-03-19T18:14:22.684Z,101121.13
2023-03-19T18:17:25.288Z,101116.94
2023-03-19T18:20:30.937Z,101127.00
2023-03-19T18:23:33.535Z,101121.97
2023-03-19T18:26:36.095Z,101125.88
2023-03-19T18:29:40.070Z,101124.50
2023-03-19T18:32:45.561Z,101132.03
2023-03-19T18:35:48.346Z,101134.56
2023-03-19T18:38:51.062Z,101137.81
2023-03-19T18:41:53.705Z,101137.94
2023-03-19T18:44:57.682Z,101149.91
2023-03-19T18:48:00.581Z,101149.13
2023-03-19T18:51:03.360Z,101141.94
2023-03-19T18:54:06.119Z,101146.63
2023-03-19T18:57:12.480Z,101145.78
2023-03-19T19:00:19.835Z,101149.81
2023-03-19T19:03:29.255Z,101151.72
2023-03-19T19:06:46.787Z,101152.84
2023-03-19T19:09:50.214Z,101151.94
2023-03-19T19:12:56.014Z,101152.66
2023-03-19T19:16:00.312Z,101163.38
2023-03-19T19:19:03.224Z,101161.38
2023-03-19T19:22:06.493Z,101168.53
2023-03-19T19:25:09.518Z,101172.34
2023-03-19T19:28:19.233Z,101174.22
2023-03-19T19:31:26.710Z,101179.88
2023-03-19T19:34:29.341Z,101188.06
2023-03-19T19:37:32.008Z,101184.72
2023-03-19T19:40:34.822Z,101182.84
2023-03-19T19:43:38.187Z,101189.19
2023-03-19T19:46:42.155Z,101195.38
2023-03-19T19:49:45.514Z,101193.59
2023-03-19T19:52:48.631Z,101195.59
2023-03-19T19:55:51.235Z,101196.53
2023-03-19T19:58:56.870Z,101196.66
2023-03-19T20:02:00.928Z,101198.63
2023-03-19T20:05:04.209Z,101205.44
2023-03-19T20:08:07.189Z,101197.41
2023-03-19T20:11:16.914Z,101203.53
2023-03-19T20:14:19.517Z,101212.41
2023-03-19T20:17:23.850Z,101212.25
2023-03-19T20:20:28.114Z,101214.66
2023-03-19T20:23:30.716Z,101224.81
2023-03-19T20:26:34.298Z,101216.13
2023-03-19T20:29:38.664Z,101229.66
2023-03-19T20:32:42.736Z,101235.00
2023-03-19T20:35:46.162Z,101230.75
2023-03-19T20:38:48.733Z,101238.88
2023-03-19T20:41:51.597Z,101233.84
2023-03-19T20:44:57.971Z,101239.75
2023-03-19T20:48:02.266Z,101243.53
2023-03-19T20:51:05.212Z,101256.34
2023-03-19T20:54:07.830Z,101259.44
2023-03-19T20:57:14.605Z,101261.66
2023-03-19T21:00:24.649Z,101261.47
2023-03-19T21:03:30.759Z,101261.44
2023-03-19T21:06:49.862Z,101254.56
2023-03-19T21:09:55.010Z,101252.81
2023-03-19T21:12:58.120Z,101257.09
2023-03-19T21:16:01.906Z,101269.34
2023-03-19T21:19:06.494Z,101271.28
2023-03-19T21:22:14.949Z,101272.59
2023-03-19T21:25:21.395Z,101275.72
2023-03-19T21:28:27.227Z,101279.16
2023-03-19T21:31:29.907Z,101280.41
2023-03-19T21:34:33.896Z,101280.41
2023-03-19T21:37:36.498Z,101281.47
2023-03-19T21:40:39.220Z,101289.28
2023-03-19T21:43:44.907Z,101290.16
2023-03-19T21:46:49.283Z,101287.66
2023-03-19T21:49:53.331Z,101290.28
2023-03-19T21:53:00.744Z,101291.72
2023-03-19T21:56:04.040Z,101294.78
2023-03-19T21:59:13.840Z,101304.50
2023-03-19T22:02:41.616Z,101313.91
2023-03-19T22:05:46.661Z,101310.63
2023-03-19T22:08:49.867Z,101308.81
2023-03-19T22:11:52.500Z,101306.13
2023-03-19T22:14:55.536Z,101311.91
2023-03-19T22:17:59.792Z,101306.94
2023-03-19T22:21:03.732Z,101299.53
2023-03-19T22:24:06.838Z,101293.75
2023-03-19T22:27:16.476Z,101295.63
2023-03-19T22:30:28.052Z,101288.72
2023-03-19T22:33:30.748Z,101276.84
2023-03-19T22:36:34.693Z,101279.50
2023-03-19T22:39:37.272Z,101278.50
2023-03-19T22:42:40.550Z,101287.19
2023-03-19T22:45:43.379Z,101286.84
2023-03-19T22:48:49.965Z,101290.66
2023-03-19T22:51:53.925Z,101296.59
2023-03-19T22:54:56.499Z,101299.47
2023-03-19T22:57:59.076Z,101290.59
2023-03-19T23:01:01.770Z,101297.38
2023-03-19T23:04:17.682Z,101291.41
2023-03-19T23:07:21.611Z,101298.47
2023-03-19T23:10:26.707Z,101289.50
2023-03-19T23:13:29.383Z,101290.59
2023-03-19T23:16:32.116Z,101288.06
2023-03-19T23:19:36.280Z,101289.97
2023-03-19T23:22:40.299Z,101290.97
2023-03-19T23:25:43.939Z,101295.59
2023-03-19T23:28:46.578Z,101290.19
2023-03-19T23:31:49.557Z,101289.56
2023-03-19T23:35:00.640Z,101293.06
2023-03-19T23:38:05.391Z,101284.38
2023-03-19T23:41:08.320Z,101286.94
2023-03-19T23:44:14.076Z,101287.25
2023-03-19T23:47:16.896Z,101286.53
2023-03-19T23:50:19.489Z,101295.00
2023-03-19T23:53:27.117Z,101293.00
2023-03-19T23:56:29.768Z,101303.38
2023-03-19T23:59:35.604Z,101300.72
